sensor_id;sensor_type;location;lat;lon;timestamp;pressure;altitude;pressure_sealevel;temperature;humidity
33506;BME280;19843;51.040;13.782;2023-11-21T00:00:15;99649.03;;;9.52;93.12
33506;BME280;19843;51.040;13.782;2023-11-21T00:02:44;99645.56;;;9.55;92.77
33506;BME280;19843;51.040;13.782;2023-11-21T00:05:14;99645.88;;;9.65;92.65
33506;BME280;19843;51.040;13.782;2023-11-21T00:07:43;99649.03;;;9.52;93.80
33506;BME280;19843;51.040;13.782;2023-11-21T00:10:12;99648.44;;;9.58;93.23
33506;BME280;19843;51.040;13.782;2023-11-21T00:12:40;99648.25;;;9.51;93.08
33506;BME280;19843;51.040;13.782;2023-11-21T00:15:09;99649.03;;;9.52;93.02
33506;BME280;19843;51.040;13.782;2023-11-21T00:17:38;99648.53;;;9.74;92.20
33506;BME280;19843;51.040;13.782;2023-11-21T00:20:08;99648.03;;;9.84;91.53
33506;BME280;19843;51.040;13.782;2023-11-21T00:22:39;99652.16;;;9.62;92.70
33506;BME280;19843;51.040;13.782;2023-11-21T00:25:08;99652.56;;;9.77;92.38
33506;BME280;19843;51.040;13.782;2023-11-21T00:27:36;99659.28;;;9.88;92.35
33506;BME280;19843;51.040;13.782;2023-11-21T00:30:04;99653.81;;;9.39;94.79
33506;BME280;19843;51.040;13.782;2023-11-21T00:32:33;99664.81;;;9.60;93.57
33506;BME280;19843;51.040;13.782;2023-11-21T00:35:00;99654.38;;;9.57;93.71
33506;BME280;19843;51.040;13.782;2023-11-21T00:37:29;99656.16;;;9.77;92.54
33506;BME280;19843;51.040;13.782;2023-11-21T00:39:58;99648.63;;;9.78;91.38
33506;BME280;19843;51.040;13.782;2023-11-21T00:42:26;99657.56;;;9.83;91.87
33506;BME280;19843;51.040;13.782;2023-11-21T00:44:53;99656.69;;;9.95;91.83
33506;BME280;19843;51.040;13.782;2023-11-21T00:47:21;99664.25;;;9.94;91.35
33506;BME280;19843;51.040;13.782;2023-11-21T00:49:49;99674.34;;;9.99;91.33
33506;BME280;19843;51.040;13.782;2023-11-21T00:52:16;99671.81;;;9.94;92.28
33506;BME280;19843;51.040;13.782;2023-11-21T00:54:46;99674.09;;;9.64;93.08
33506;BME280;19843;51.040;13.782;2023-11-21T00:57:14;99668.41;;;9.60;94.40
33506;BME280;19843;51.040;13.782;2023-11-21T00:59:41;99670.72;;;9.70;94.60
33506;BME280;19843;51.040;13.782;2023-11-21T01:02:09;99673.06;;;9.56;94.13
33506;BME280;19843;51.040;13.782;2023-11-21T01:04:37;99674.16;;;9.80;94.18
33506;BME280;19843;51.040;13.782;2023-11-21T01:07:05;99680.94;;;9.66;93.48
33506;BME280;19843;51.040;13.782;2023-11-21T01:09:32;99679.56;;;9.60;94.14
33506;BME280;19843;51.040;13.782;2023-11-21T01:12:02;99680.56;;;9.68;94.57
33506;BME280;19843;51.040;13.782;2023-11-21T01:14:29;99684.09;;;9.65;94.74
33506;BME280;19843;51.040;13.782;2023-11-21T01:16:57;99676.72;;;9.32;96.41
33506;BME280;19843;51.040;13.782;2023-11-21T01:19:24;99680.66;;;9.31;96.43
33506;BME280;19843;51.040;13.782;2023-11-21T01:21:52;99688.88;;;9.40;96.99
33506;BME280;19843;51.040;13.782;2023-11-21T01:24:19;99687.84;;;9.32;96.97
33506;BME280;19843;51.040;13.782;2023-11-21T01:26:47;99686.78;;;9.24;96.88
33506;BME280;19843;51.040;13.782;2023-11-21T01:29:16;99698.06;;;9.28;96.41
33506;BME280;19843;51.040;13.782;2023-11-21T01:31:43;99689.78;;;9.56;96.57
33506;BME280;19843;51.040;13.782;2023-11-21T01:34:11;99683.69;;;9.26;96.56
33506;BME280;19843;51.040;13.782;2023-11-21T01:36:39;99683.84;;;9.58;95.69
33506;BME280;19843;51.040;13.782;2023-11-21T01:39:06;99690.59;;;9.44;95.46
33506;BME280;19843;51.040;13.782;2023-11-21T01:41:35;99676.03;;;9.35;97.45
33506;BME280;19843;51.040;13.782;2023-11-21T01:44:03;99680.25;;;9.69;94.84
33506;BME280;19843;51.040;13.782;2023-11-21T01:46:35;99687.59;;;9.49;94.85
33506;BME280;19843;51.040;13.782;2023-11-21T01:49:04;99677.06;;;9.31;96.77
33506;BME280;19843;51.040;13.782;2023-11-21T01:51:32;99692.56;;;9.56;95.48
33506;BME280;19843;51.040;13.782;2023-11-21T01:54:00;99689.00;;;9.43;95.33
33506;BME280;19843;51.040;13.782;2023-11-21T01:56:28;99688.28;;;9.46;95.49
33506;BME280;19843;51.040;13.782;2023-11-21T01:58:57;99679.06;;;9.70;94.46
33506;BME280;19843;51.040;13.782;2023-11-21T02:01:25;99690.34;;;9.74;93.92
33506;BME280;19843;51.040;13.782;2023-11-21T02:03:54;99689.22;;;9.38;95.08
33506;BME280;19843;51.040;13.782;2023-11-21T02:06:22;99685.16;;;9.48;96.37
33506;BME280;19843;51.040;13.782;2023-11-21T02:08:50;99683.97;;;9.49;95.03
33506;BME280;19843;51.040;13.782;2023-11-21T02:11:18;99694.56;;;9.43;95.33
33506;BME280;19843;51.040;13.782;2023-11-21T02:13:45;99690.06;;;9.14;96.43
33506;BME280;19843;51.040;13.782;2023-11-21T02:16:13;99690.63;;;9.20;96.27
33506;BME280;19843;51.040;13.782;2023-11-21T02:18:41;99694.88;;;9.54;94.45
33506;BME280;19843;51.040;13.782;2023-11-21T02:21:10;99697.66;;;9.66;93.97
33506;BME280;19843;51.040;13.782;2023-11-21T02:23:39;99705.50;;;9.36;94.96
33506;BME280;19843;51.040;13.782;2023-11-21T02:26:10;99700.03;;;9.28;95.70
33506;BME280;19843;51.040;13.782;2023-11-21T02:28:38;99698.50;;;9.55;93.77
33506;BME280;19843;51.040;13.782;2023-11-21T02:31:06;99703.88;;;9.35;95.26
33506;BME280;19843;51.040;13.782;2023-11-21T02:33:34;99696.09;;;9.29;95.46
33506;BME280;19843;51.040;13.782;2023-11-21T02:36:02;99695.97;;;9.37;94.44
33506;BME280;19843;51.040;13.782;2023-11-21T02:38:30;99701.53;;;9.37;93.87
33506;BME280;19843;51.040;13.782;2023-11-21T02:40:59;99695.31;;;9.68;93.03
33506;BME280;19843;51.040;13.782;2023-11-21T02:43:26;99701.50;;;9.62;93.41
33506;BME280;19843;51.040;13.782;2023-11-21T02:45:54;99690.78;;;9.76;93.08
33506;BME280;19843;51.040;13.782;2023-11-21T02:48:21;99704.59;;;9.85;92.54
33506;BME280;19843;51.040;13.782;2023-11-21T02:50:51;99699.38;;;9.71;93.15
33506;BME280;19843;51.040;13.782;2023-11-21T02:53:19;99702.19;;;9.71;93.04
33506;BME280;19843;51.040;13.782;2023-11-21T02:55:47;99703.34;;;9.58;93.35
33506;BME280;19843;51.040;13.782;2023-11-21T02:58:16;99708.03;;;9.41;94.07
33506;BME280;19843;51.040;13.782;2023-11-21T03:00:43;99707.09;;;9.01;94.65
33506;BME280;19843;51.040;13.782;2023-11-21T03:03:11;99705.81;;;8.86;96.25
33506;BME280;19843;51.040;13.782;2023-11-21T03:05:39;99706.88;;;8.93;95.72
33506;BME280;19843;51.040;13.782;2023-11-21T03:08:06;99713.47;;;9.01;95.84
33506;BME280;19843;51.040;13.782;2023-11-21T03:10:34;99711.19;;;9.03;95.83
33506;BME280;19843;51.040;13.782;2023-11-21T03:13:02;99707.09;;;9.01;95.59
33506;BME280;19843;51.040;13.782;2023-11-21T03:15:32;99709.75;;;8.97;95.27
33506;BME280;19843;51.040;13.782;2023-11-21T03:18:01;99715.00;;;9.11;95.51
33506;BME280;19843;51.040;13.782;2023-11-21T03:20:31;99721.16;;;9.04;94.89
33506;BME280;19843;51.040;13.782;2023-11-21T03:22:58;99719.38;;;8.87;96.65
33506;BME280;19843;51.040;13.782;2023-11-21T03:25:27;99725.41;;;9.02;95.73
33506;BME280;19843;51.040;13.782;2023-11-21T03:27:54;99719.75;;;9.10;95.57
33506;BME280;19843;51.040;13.782;2023-11-21T03:30:22;99724.75;;;9.05;94.88
33506;BME280;19843;51.040;13.782;2023-11-21T03:32:51;99720.56;;;8.98;95.25
33506;BME280;19843;51.040;13.782;2023-11-21T03:35:19;99722.53;;;9.10;95.25
33506;BME280;19843;51.040;13.782;2023-11-21T03:37:47;99721.97;;;9.05;94.90
33506;BME280;19843;51.040;13.782;2023-11-21T03:40:15;99720.69;;;9.02;94.91
33506;BME280;19843;51.040;13.782;2023-11-21T03:42:42;99728.34;;;9.05;94.42
33506;BME280;19843;51.040;13.782;2023-11-21T03:45:10;99724.28;;;9.03;95.00
33506;BME280;19843;51.040;13.782;2023-11-21T03:47:39;99729.72;;;8.99;94.80
33506;BME280;19843;51.040;13.782;2023-11-21T03:50:08;99735.28;;;8.87;95.16
33506;BME280;19843;51.040;13.782;2023-11-21T03:52:37;99732.16;;;8.88;95.13
33506;BME280;19843;51.040;13.782;2023-11-21T03:55:04;99743.06;;;8.93;94.78
33506;BME280;19843;51.040;13.782;2023-11-21T03:57:32;99745.47;;;8.83;94.93
33506;BME280;19843;51.040;13.782;2023-11-21T03:59:59;99732.75;;;8.94;94.46
33506;BME280;19843;51.040;13.782;2023-11-21T04:02:27;99736.47;;;8.98;94.72
33506;BME280;19843;51.040;13.782;2023-11-21T04:04:56;99727.50;;;8.80;95.04
33506;BME280;19843;51.040;13.782;2023-11-21T04:07:25;99737.47;;;8.81;95.17
33506;BME280;19843;51.040;13.782;2023-11-21T04:09:53;99734.00;;;8.84;95.91
33506;BME280;19843;51.040;13.782;2023-11-21T04:12:21;99738.59;;;8.68;95.21
33506;BME280;19843;51.040;13.782;2023-11-21T04:14:48;99733.06;;;8.80;95.81
33506;BME280;19843;51.040;13.782;2023-11-21T04:17:18;99737.72;;;8.88;95.20
33506;BME280;19843;51.040;13.782;2023-11-21T04:19:46;99739.41;;;8.68;95.92
33506;BME280;19843;51.040;13.782;2023-11-21T04:22:14;99732.19;;;8.55;96.32
33506;BME280;19843;51.040;13.782;2023-11-21T04:24:43;99737.94;;;8.83;95.61
33506;BME280;19843;51.040;13.782;2023-11-21T04:27:10;99745.13;;;8.84;95.99
33506;BME280;19843;51.040;13.782;2023-11-21T04:29:39;99744.66;;;8.82;95.49
33506;BME280;19843;51.040;13.782;2023-11-21T04:32:07;99742.59;;;8.91;95.32
33506;BME280;19843;51.040;13.782;2023-11-21T04:34:35;99750.13;;;8.91;95.02
33506;BME280;19843;51.040;13.782;2023-11-21T04:37:02;99746.97;;;8.92;95.16
33506;BME280;19843;51.040;13.782;2023-11-21T04:39:32;99746.53;;;8.90;94.14
33506;BME280;19843;51.040;13.782;2023-11-21T04:42:01;99759.63;;;8.90;94.43
33506;BME280;19843;51.040;13.782;2023-11-21T04:44:29;99756.72;;;8.86;94.71
33506;BME280;19843;51.040;13.782;2023-11-21T04:46:57;99754.28;;;8.85;94.88
33506;BME280;19843;51.040;13.782;2023-11-21T04:49:24;99763.09;;;8.87;94.86
33506;BME280;19843;51.040;13.782;2023-11-21T04:51:52;99763.09;;;8.87;94.85
33506;BME280;19843;51.040;13.782;2023-11-21T04:54:19;99762.72;;;8.76;94.92
33506;BME280;19843;51.040;13.782;2023-11-21T04:56:50;99772.88;;;8.93;95.19
33506;BME280;19843;51.040;13.782;2023-11-21T04:59:19;99771.94;;;8.89;94.39
33506;BME280;19843;51.040;13.782;2023-11-21T05:01:47;99770.06;;;8.81;95.43
33506;BME280;19843;51.040;13.782;2023-11-21T05:04:14;99777.66;;;9.05;94.76
33506;BME280;19843;51.040;13.782;2023-11-21T05:06:42;99771.50;;;9.11;94.16
33506;BME280;19843;51.040;13.782;2023-11-21T05:09:10;99771.84;;;9.10;93.43
33506;BME280;19843;51.040;13.782;2023-11-21T05:11:38;99773.94;;;9.13;93.96
33506;BME280;19843;51.040;13.782;2023-11-21T05:14:07;99779.75;;;9.20;93.62
33506;BME280;19843;51.040;13.782;2023-11-21T05:16:36;99784.91;;;8.85;94.80
33506;BME280;19843;51.040;13.782;2023-11-21T05:19:04;99779.16;;;9.02;94.38
33506;BME280;19843;51.040;13.782;2023-11-21T05:21:32;99794.00;;;9.06;94.46
33506;BME280;19843;51.040;13.782;2023-11-21T05:24:00;99787.56;;;8.81;95.01
33506;BME280;19843;51.040;13.782;2023-11-21T05:26:27;99789.59;;;9.05;94.05
33506;BME280;19843;51.040;13.782;2023-11-21T05:28:55;99791.19;;;8.94;95.00
33506;BME280;19843;51.040;13.782;2023-11-21T05:31:23;99799.84;;;8.80;95.67
33506;BME280;19843;51.040;13.782;2023-11-21T05:33:52;99792.84;;;9.07;94.51
33506;BME280;19843;51.040;13.782;2023-11-21T05:36:19;99798.53;;;8.98;95.69
33506;BME280;19843;51.040;13.782;2023-11-21T05:38:47;99799.72;;;9.22;94.02
33506;BME280;19843;51.040;13.782;2023-11-21T05:41:15;99800.81;;;8.84;95.10
33506;BME280;19843;51.040;13.782;2023-11-21T05:43:43;99799.59;;;8.73;96.39
33506;BME280;19843;51.040;13.782;2023-11-21T05:46:11;99803.59;;;8.84;95.44
33506;BME280;19843;51.040;13.782;2023-11-21T05:48:39;99798.53;;;9.11;94.83
33506;BME280;19843;51.040;13.782;2023-11-21T05:51:08;99801.88;;;9.04;94.37
33506;BME280;19843;51.040;13.782;2023-11-21T05:53:36;99808.81;;;8.86;96.22
33506;BME280;19843;51.040;13.782;2023-11-21T05:56:04;99801.97;;;8.95;95.69
33506;BME280;19843;51.040;13.782;2023-11-21T05:58:32;99803.19;;;9.19;93.21
33506;BME280;19843;51.040;13.782;2023-11-21T06:00:59;99805.63;;;9.20;93.44
33506;BME280;19843;51.040;13.782;2023-11-21T06:03:27;99810.88;;;9.22;93.49
33506;BME280;19843;51.040;13.782;2023-11-21T06:05:55;99809.91;;;9.18;93.45
33506;BME280;19843;51.040;13.782;2023-11-21T06:08:24;99808.88;;;9.22;93.31
33506;BME280;19843;51.040;13.782;2023-11-21T06:10:51;99811.78;;;9.14;93.08
33506;BME280;19843;51.040;13.782;2023-11-21T06:13:19;99817.47;;;9.17;93.60
33506;BME280;19843;51.040;13.782;2023-11-21T06:15:51;99818.94;;;9.03;93.82
33506;BME280;19843;51.040;13.782;2023-11-21T06:18:19;99831.56;;;8.88;94.73
33506;BME280;19843;51.040;13.782;2023-11-21T06:20:47;99828.56;;;9.05;93.84
33506;BME280;19843;51.040;13.782;2023-11-21T06:23:16;99826.28;;;9.07;94.54
33506;BME280;19843;51.040;13.782;2023-11-21T06:25:45;99822.88;;;8.68;95.33
33506;BME280;19843;51.040;13.782;2023-11-21T06:28:12;99828.63;;;8.84;95.36
33506;BME280;19843;51.040;13.782;2023-11-21T06:30:43;99836.25;;;8.75;97.29
33506;BME280;19843;51.040;13.782;2023-11-21T06:33:11;99826.59;;;8.93;94.83
33506;BME280;19843;51.040;13.782;2023-11-21T06:35:39;99832.94;;;8.61;96.73
33506;BME280;19843;51.040;13.782;2023-11-21T06:38:06;99840.28;;;8.98;95.09
33506;BME280;19843;51.040;13.782;2023-11-21T06:40:35;99844.75;;;8.58;97.24
33506;BME280;19843;51.040;13.782;2023-11-21T06:43:04;99850.00;;;8.59;98.14
33506;BME280;19843;51.040;13.782;2023-11-21T06:45:33;99846.00;;;8.81;96.90
33506;BME280;19843;51.040;13.782;2023-11-21T06:48:01;99843.97;;;8.90;96.83
33506;BME280;19843;51.040;13.782;2023-11-21T06:50:29;99844.91;;;8.94;96.35
33506;BME280;19843;51.040;13.782;2023-11-21T06:52:56;99840.19;;;8.74;98.09
33506;BME280;19843;51.040;13.782;2023-11-21T06:55:24;99845.69;;;8.62;97.68
33506;BME280;19843;51.040;13.782;2023-11-21T06:57:51;99842.53;;;8.51;98.53
33506;BME280;19843;51.040;13.782;2023-11-21T07:00:20;99852.03;;;8.50;97.91
33506;BME280;19843;51.040;13.782;2023-11-21T07:02:48;99855.94;;;8.49;99.59
33506;BME280;19843;51.040;13.782;2023-11-21T07:05:16;99853.16;;;8.70;98.62
33506;BME280;19843;51.040;13.782;2023-11-21T07:07:49;99855.94;;;8.49;100.00
33506;BME280;19843;51.040;13.782;2023-11-21T07:10:17;99866.28;;;8.69;100.00
33506;BME280;19843;51.040;13.782;2023-11-21T07:12:44;99856.69;;;8.58;100.00
33506;BME280;19843;51.040;13.782;2023-11-21T07:15:12;99855.94;;;8.49;100.00
33506;BME280;19843;51.040;13.782;2023-11-21T07:17:41;99866.91;;;8.87;100.00
33506;BME280;19843;51.040;13.782;2023-11-21T07:20:10;99862.69;;;8.69;100.00
33506;BME280;19843;51.040;13.782;2023-11-21T07:22:38;99865.13;;;8.83;100.00
33506;BME280;19843;51.040;13.782;2023-11-21T07:25:07;99868.84;;;9.08;98.76
33506;BME280;19843;51.040;13.782;2023-11-21T07:27:36;99869.22;;;8.85;99.70
33506;BME280;19843;51.040;13.782;2023-11-21T07:30:04;99873.94;;;9.06;99.42
33506;BME280;19843;51.040;13.782;2023-11-21T07:32:34;99866.38;;;9.06;99.25
33506;BME280;19843;51.040;13.782;2023-11-21T07:35:03;99881.75;;;9.24;97.75
33506;BME280;19843;51.040;13.782;2023-11-21T07:37:31;99881.16;;;9.19;97.98
33506;BME280;19843;51.040;13.782;2023-11-21T07:39:59;99882.38;;;9.42;97.27
33506;BME280;19843;51.040;13.782;2023-11-21T07:42:27;99880.25;;;9.27;98.12
33506;BME280;19843;51.040;13.782;2023-11-21T07:44:55;99880.53;;;9.59;96.85
33506;BME280;19843;51.040;13.782;2023-11-21T07:47:23;99888.09;;;9.58;95.30
33506;BME280;19843;51.040;13.782;2023-11-21T07:49:54;99890.41;;;9.68;96.34
33506;BME280;19843;51.040;13.782;2023-11-21T07:52:24;99901.16;;;9.21;98.65
33506;BME280;19843;51.040;13.782;2023-11-21T07:54:52;99896.53;;;9.37;96.79
33506;BME280;19843;51.040;13.782;2023-11-21T07:57:19;99898.66;;;9.53;97.17
33506;BME280;19843;51.040;13.782;2023-11-21T07:59:47;99898.16;;;9.38;97.47
33506;BME280;19843;51.040;13.782;2023-11-21T08:02:15;99902.06;;;8.92;98.94
33506;BME280;19843;51.040;13.782;2023-11-21T08:04:42;99907.41;;;8.97;98.78
33506;BME280;19843;51.040;13.782;2023-11-21T08:07:11;99902.72;;;9.10;98.28
33506;BME280;19843;51.040;13.782;2023-11-21T08:09:40;99905.06;;;8.87;100.00
33506;BME280;19843;51.040;13.782;2023-11-21T08:12:08;99902.56;;;9.27;98.89
33506;BME280;19843;51.040;13.782;2023-11-21T08:14:37;99905.34;;;9.39;96.36
33506;BME280;19843;51.040;13.782;2023-11-21T08:17:07;99903.38;;;9.07;99.04
33506;BME280;19843;51.040;13.782;2023-11-21T08:19:36;99908.94;;;9.28;99.20
33506;BME280;19843;51.040;13.782;2023-11-21T08:22:04;99914.16;;;8.96;100.00
33506;BME280;19843;51.040;13.782;2023-11-21T08:24:34;99911.63;;;9.36;100.00
33506;BME280;19843;51.040;13.782;2023-11-21T08:27:03;99907.53;;;8.88;100.00
33506;BME280;19843;51.040;13.782;2023-11-21T08:29:33;99917.94;;;8.91;100.00
33506;BME280;19843;51.040;13.782;2023-11-21T08:32:03;99919.28;;;8.52;100.00
33506;BME280;19843;51.040;13.782;2023-11-21T08:34:31;99913.84;;;9.10;100.00
33506;BME280;19843;51.040;13.782;2023-11-21T08:37:00;99917.38;;;8.65;100.00
33506;BME280;19843;51.040;13.782;2023-11-21T08:39:27;99919.31;;;8.85;100.00
33506;BME280;19843;51.040;13.782;2023-11-21T08:41:57;99910.63;;;9.08;100.00
33506;BME280;19843;51.040;13.782;2023-11-21T08:44:26;99916.56;;;8.64;100.00
33506;BME280;19843;51.040;13.782;2023-11-21T08:46:53;99914.84;;;8.72;100.00
33506;BME280;19843;51.040;13.782;2023-11-21T08:49:21;99920.00;;;8.82;100.00
33506;BME280;19843;51.040;13.782;2023-11-21T08:51:48;99916.94;;;8.54;100.00
33506;BME280;19843;51.040;13.782;2023-11-21T08:54:16;99922.91;;;8.44;100.00
33506;BME280;19843;51.040;13.782;2023-11-21T08:56:44;99924.28;;;8.59;100.00
33506;BME280;19843;51.040;13.782;2023-11-21T08:59:13;99923.97;;;8.60;100.00
33506;BME280;19843;51.040;13.782;2023-11-21T09:01:42;99931.28;;;8.65;100.00
33506;BME280;19843;51.040;13.782;2023-11-21T09:04:10;99932.97;;;8.57;100.00
33506;BME280;19843;51.040;13.782;2023-11-21T09:06:37;99929.59;;;8.52;100.00
33506;BME280;19843;51.040;13.782;2023-11-21T09:09:06;99943.91;;;8.41;100.00
33506;BME280;19843;51.040;13.782;2023-11-21T09:11:35;99941.13;;;8.41;100.00
33506;BME280;19843;51.040;13.782;2023-11-21T09:14:03;99939.94;;;8.42;100.00
33506;BME280;19843;51.040;13.782;2023-11-21T09:16:31;99943.41;;;8.39;100.00
33506;BME280;19843;51.040;13.782;2023-11-21T09:19:00;99953.13;;;8.54;100.00
33506;BME280;19843;51.040;13.782;2023-11-21T09:21:28;99948.66;;;8.41;100.00
33506;BME280;19843;51.040;13.782;2023-11-21T09:23:56;99946.69;;;8.33;100.00
33506;BME280;19843;51.040;13.782;2023-11-21T09:26:23;99952.25;;;8.33;100.00
33506;BME280;19843;51.040;13.782;2023-11-21T09:28:51;99963.38;;;8.33;100.00
33506;BME280;19843;51.040;13.782;2023-11-21T09:31:19;99966.72;;;8.56;100.00
33506;BME280;19843;51.040;13.782;2023-11-21T09:33:49;99965.00;;;8.34;100.00
33506;BME280;19843;51.040;13.782;2023-11-21T09:36:18;99959.28;;;8.39;100.00
33506;BME280;19843;51.040;13.782;2023-11-21T09:38:51;99961.06;;;8.35;100.00
33506;BME280;19843;51.040;13.782;2023-11-21T09:41:27;99963.22;;;8.29;100.00
33506;BME280;19843;51.040;13.782;2023-11-21T09:44:00;99957.53;;;8.26;100.00
33506;BME280;19843;51.040;13.782;2023-11-21T09:46:33;99963.72;;;8.61;100.00
33506;BME280;19843;51.040;13.782;2023-11-21T09:49:02;99969.53;;;8.47;100.00
33506;BME280;19843;51.040;13.782;2023-11-21T09:51:34;99976.56;;;8.15;100.00
33506;BME280;19843;51.040;13.782;2023-11-21T09:54:05;99977.47;;;8.28;100.00
33506;BME280;19843;51.040;13.782;2023-11-21T09:56:37;99975.75;;;7.76;100.00
33506;BME280;19843;51.040;13.782;2023-11-21T09:59:06;99976.66;;;7.98;100.00
33506;BME280;19843;51.040;13.782;2023-11-21T10:01:39;99983.09;;;7.72;100.00
33506;BME280;19843;51.040;13.782;2023-11-21T10:04:09;99993.56;;;7.75;100.00
33506;BME280;19843;51.040;13.782;2023-11-21T10:06:40;100001.94;;;7.58;100.00
33506;BME280;19843;51.040;13.782;2023-11-21T10:09:10;99997.59;;;7.22;100.00
33506;BME280;19843;51.040;13.782;2023-11-21T10:11:40;100006.88;;;7.26;100.00
33506;BME280;19843;51.040;13.782;2023-11-21T10:14:10;100005.44;;;6.85;100.00
33506;BME280;19843;51.040;13.782;2023-11-21T10:16:41;100017.84;;;7.31;100.00
33506;BME280;19843;51.040;13.782;2023-11-21T10:19:11;100016.53;;;6.85;100.00
33506;BME280;19843;51.040;13.782;2023-11-21T10:21:44;100022.88;;;6.68;100.00
33506;BME280;19843;51.040;13.782;2023-11-21T10:24:11;100025.16;;;6.66;100.00
33506;BME280;19843;51.040;13.782;2023-11-21T10:26:39;100020.47;;;7.19;100.00
33506;BME280;19843;51.040;13.782;2023-11-21T10:29:18;100035.13;;;6.76;100.00
33506;BME280;19843;51.040;13.782;2023-11-21T10:31:49;100037.06;;;6.67;100.00
33506;BME280;19843;51.040;13.782;2023-11-21T10:34:18;100036.78;;;6.86;100.00
33506;BME280;19843;51.040;13.782;2023-11-21T10:36:47;100044.91;;;6.82;100.00
33506;BME280;19843;51.040;13.782;2023-11-21T10:39:16;100044.28;;;6.94;100.00
33506;BME280;19843;51.040;13.782;2023-11-21T10:41:44;100060.63;;;7.30;100.00
33506;BME280;19843;51.040;13.782;2023-11-21T10:44:14;100056.50;;;6.76;100.00
33506;BME280;19843;51.040;13.782;2023-11-21T10:46:49;100058.19;;;6.37;100.00
33506;BME280;19843;51.040;13.782;2023-11-21T10:49:20;100059.66;;;6.34;100.00
33506;BME280;19843;51.040;13.782;2023-11-21T10:51:54;100063.19;;;6.83;100.00
33506;BME280;19843;51.040;13.782;2023-11-21T10:54:26;100064.47;;;6.60;100.00
33506;BME280;19843;51.040;13.782;2023-11-21T10:57:00;100060.28;;;7.06;100.00
33506;BME280;19843;51.040;13.782;2023-11-21T10:59:31;100071.88;;;6.02;100.00
33506;BME280;19843;51.040;13.782;2023-11-21T11:02:12;100065.25;;;6.12;100.00
33506;BME280;19843;51.040;13.782;2023-11-21T11:04:52;100076.31;;;6.43;100.00
33506;BME280;19843;51.040;13.782;2023-11-21T11:07:27;100074.59;;;6.73;100.00
33506;BME280;19843;51.040;13.782;2023-11-21T11:10:00;100071.97;;;6.68;100.00
33506;BME280;19843;51.040;13.782;2023-11-21T11:12:36;100081.38;;;6.41;100.00
33506;BME280;19843;51.040;13.782;2023-11-21T11:15:15;100085.34;;;6.57;100.00
33506;BME280;19843;51.040;13.782;2023-11-21T11:17:48;100083.94;;;6.86;100.00
33506;BME280;19843;51.040;13.782;2023-11-21T11:20:18;100082.47;;;6.80;100.00
33506;BME280;19843;51.040;13.782;2023-11-21T11:22:59;100087.44;;;6.52;100.00
33506;BME280;19843;51.040;13.782;2023-11-21T11:25:38;100099.31;;;6.44;100.00
33506;BME280;19843;51.040;13.782;2023-11-21T11:28:17;100101.75;;;6.45;100.00
33506;BME280;19843;51.040;13.782;2023-11-21T11:30:59;100095.06;;;6.37;100.00
33506;BME280;19843;51.040;13.782;2023-11-21T11:33:39;100106.53;;;6.53;100.00
33506;BME280;19843;51.040;13.782;2023-11-21T11:36:15;100109.94;;;6.10;100.00
33506;BME280;19843;51.040;13.782;2023-11-21T11:38:47;100108.41;;;6.35;100.00
33506;BME280;19843;51.040;13.782;2023-11-21T11:41:25;100109.81;;;6.55;100.00
33506;BME280;19843;51.040;13.782;2023-11-21T11:43:57;100117.34;;;6.72;99.89
33506;BME280;19843;51.040;13.782;2023-11-21T11:46:40;100115.66;;;6.14;100.00
33506;BME280;19843;51.040;13.782;2023-11-21T11:49:23;100105.97;;;6.34;100.00
33506;BME280;19843;51.040;13.782;2023-11-21T11:55:02;100118.28;;;6.59;100.00
33506;BME280;19843;51.040;13.782;2023-11-21T11:57:31;100109.13;;;6.50;100.00
33506;BME280;19843;51.040;13.782;2023-11-21T12:00:13;100121.34;;;6.09;100.00
33506;BME280;19843;51.040;13.782;2023-11-21T12:02:48;100125.75;;;6.10;100.00
33506;BME280;19843;51.040;13.782;2023-11-21T12:05:18;100124.81;;;6.54;100.00
33506;BME280;19843;51.040;13.782;2023-11-21T12:07:57;100124.28;;;6.44;100.00
33506;BME280;19843;51.040;13.782;2023-11-21T12:10:30;100132.50;;;6.26;100.00
33506;BME280;19843;51.040;13.782;2023-11-21T12:13:13;100134.22;;;6.45;100.00
33506;BME280;19843;51.040;13.782;2023-11-21T12:15:46;100142.63;;;6.31;100.00
33506;BME280;19843;51.040;13.782;2023-11-21T12:18:15;100146.16;;;5.92;100.00
33506;BME280;19843;51.040;13.782;2023-11-21T12:20:44;100144.50;;;5.90;100.00
33506;BME280;19843;51.040;13.782;2023-11-21T12:23:16;100154.22;;;6.02;100.00
33506;BME280;19843;51.040;13.782;2023-11-21T12:25:50;100157.59;;;5.76;100.00
33506;BME280;19843;51.040;13.782;2023-11-21T12:28:20;100154.91;;;5.85;100.00
33506;BME280;19843;51.040;13.782;2023-11-21T12:30:54;100157.94;;;5.97;100.00
33506;BME280;19843;51.040;13.782;2023-11-21T12:33:41;100168.47;;;6.09;100.00
33506;BME280;19843;51.040;13.782;2023-11-21T12:36:12;100164.94;;;5.95;100.00
33506;BME280;19843;51.040;13.782;2023-11-21T12:38:52;100172.44;;;5.94;100.00
33506;BME280;19843;51.040;13.782;2023-11-21T12:41:22;100173.28;;;5.81;100.00
33506;BME280;19843;51.040;13.782;2023-11-21T12:43:56;100175.59;;;5.87;100.00
33506;BME280;19843;51.040;13.782;2023-11-21T12:46:25;100175.13;;;6.08;100.00
33506;BME280;19843;51.040;13.782;2023-11-21T12:48:58;100174.34;;;5.71;100.00
33506;BME280;19843;51.040;13.782;2023-11-21T12:51:27;100169.97;;;5.93;100.00
33506;BME280;19843;51.040;13.782;2023-11-21T12:53:55;100187.38;;;6.38;100.00
33506;BME280;19843;51.040;13.782;2023-11-21T12:56:26;100182.78;;;6.33;100.00
33506;BME280;19843;51.040;13.782;2023-11-21T12:58:55;100191.66;;;5.77;100.00
33506;BME280;19843;51.040;13.782;2023-11-21T13:01:26;100199.63;;;5.92;100.00
33506;BME280;19843;51.040;13.782;2023-11-21T13:03:57;100191.03;;;5.80;100.00
33506;BME280;19843;51.040;13.782;2023-11-21T13:06:25;100210.75;;;5.64;100.00
33506;BME280;19843;51.040;13.782;2023-11-21T13:08:54;100211.66;;;5.37;100.00